sensor_id;sensor_type;location;lat;lon;timestamp;P1;durP1;ratioP1;P2;durP2;ratioP2
52180;SDS011;38158;53.338;6.514;2022-10-19T00:01:40;7.78;;;1.02;;
52180;SDS011;38158;53.338;6.514;2022-10-19T00:04:06;13.48;;;1.02;;
52180;SDS011;38158;53.338;6.514;2022-10-19T00:06:33;12.02;;;1.38;;
52180;SDS011;38158;53.338;6.514;2022-10-19T00:11:53;9.35;;;1.05;;
52180;SDS011;38158;53.338;6.514;2022-10-19T00:14:20;10.63;;;1.20;;
52180;SDS011;38158;53.338;6.514;2022-10-19T00:16:48;8.98;;;1.27;;
52180;SDS011;38158;53.338;6.514;2022-10-19T00:19:17;6.97;;;0.60;;
52180;SDS011;38158;53.338;6.514;2022-10-19T00:21:45;8.88;;;1.10;;
52180;SDS011;38158;53.338;6.514;2022-10-19T00:24:11;6.75;;;0.70;;
52180;SDS011;38158;53.338;6.514;2022-10-19T00:26:37;11.13;;;1.20;;
52180;SDS011;38158;53.338;6.514;2022-10-19T00:29:03;9.98;;;0.80;;
52180;SDS011;38158;53.338;6.514;2022-10-19T00:31:29;6.32;;;1.30;;
52180;SDS011;38158;53.338;6.514;2022-10-19T00:33:56;11.00;;;1.40;;
52180;SDS011;38158;53.338;6.514;2022-10-19T00:38:53;8.10;;;1.05;;
52180;SDS011;38158;53.338;6.514;2022-10-19T00:41:20;8.88;;;1.63;;
52180;SDS011;38158;53.338;6.514;2022-10-19T00:46:29;9.18;;;1.20;;
52180;SDS011;38158;53.338;6.514;2022-10-19T00:49:08;5.38;;;0.80;;
52180;SDS011;38158;53.338;6.514;2022-10-19T00:51:45;7.38;;;0.82;;
52180;SDS011;38158;53.338;6.514;2022-10-19T00:54:13;9.65;;;0.80;;
52180;SDS011;38158;53.338;6.514;2022-10-19T00:59:07;6.38;;;0.70;;
52180;SDS011;38158;53.338;6.514;2022-10-19T01:01:34;5.55;;;0.55;;
52180;SDS011;38158;53.338;6.514;2022-10-19T01:04:00;11.20;;;0.90;;
52180;SDS011;38158;53.338;6.514;2022-10-19T01:06:28;9.13;;;1.00;;
52180;SDS011;38158;53.338;6.514;2022-10-19T01:08:54;5.40;;;0.93;;
52180;SDS011;38158;53.338;6.514;2022-10-19T01:27:27;7.20;;;1.10;;
52180;SDS011;38158;53.338;6.514;2022-10-19T01:30:16;7.88;;;1.20;;
52180;SDS011;38158;53.338;6.514;2022-10-19T01:36:08;14.23;;;1.73;;
52180;SDS011;38158;53.338;6.514;2022-10-19T01:38:51;10.20;;;0.95;;
52180;SDS011;38158;53.338;6.514;2022-10-19T01:41:32;11.18;;;1.15;;
52180;SDS011;38158;53.338;6.514;2022-10-19T01:46:56;8.45;;;1.05;;
52180;SDS011;38158;53.338;6.514;2022-10-19T01:49:28;9.07;;;0.82;;
52180;SDS011;38158;53.338;6.514;2022-10-19T01:52:01;7.70;;;0.95;;
52180;SDS011;38158;53.338;6.514;2022-10-19T01:54:29;9.23;;;1.50;;
52180;SDS011;38158;53.338;6.514;2022-10-19T01:57:00;12.90;;;1.13;;
52180;SDS011;38158;53.338;6.514;2022-10-19T01:59:29;9.07;;;1.15;;
52180;SDS011;38158;53.338;6.514;2022-10-19T02:01:57;8.55;;;1.08;;
52180;SDS011;38158;53.338;6.514;2022-10-19T02:04:24;12.10;;;1.08;;
52180;SDS011;38158;53.338;6.514;2022-10-19T02:06:51;12.35;;;1.48;;
52180;SDS011;38158;53.338;6.514;2022-10-19T02:09:18;7.93;;;1.38;;
52180;SDS011;38158;53.338;6.514;2022-10-19T02:11:45;11.63;;;0.93;;
52180;SDS011;38158;53.338;6.514;2022-10-19T02:14:13;11.57;;;2.08;;
52180;SDS011;38158;53.338;6.514;2022-10-19T02:16:48;9.45;;;1.30;;
52180;SDS011;38158;53.338;6.514;2022-10-19T02:19:19;10.40;;;1.85;;
52180;SDS011;38158;53.338;6.514;2022-10-19T02:24:12;12.30;;;1.42;;
52180;SDS011;38158;53.338;6.514;2022-10-19T02:26:37;11.05;;;1.48;;
52180;SDS011;38158;53.338;6.514;2022-10-19T02:29:04;6.95;;;1.30;;
52180;SDS011;38158;53.338;6.514;2022-10-19T02:31:31;9.10;;;1.20;;
52180;SDS011;38158;53.338;6.514;2022-10-19T02:33:56;11.05;;;1.25;;
52180;SDS011;38158;53.338;6.514;2022-10-19T02:36:22;13.20;;;1.27;;
52180;SDS011;38158;53.338;6.514;2022-10-19T02:38:48;11.55;;;1.38;;
52180;SDS011;38158;53.338;6.514;2022-10-19T02:41:26;12.30;;;1.30;;
52180;SDS011;38158;53.338;6.514;2022-10-19T02:44:28;10.68;;;1.20;;
52180;SDS011;38158;53.338;6.514;2022-10-19T02:47:01;13.73;;;1.85;;
52180;SDS011;38158;53.338;6.514;2022-10-19T02:49:31;10.13;;;1.25;;
52180;SDS011;38158;53.338;6.514;2022-10-19T02:52:02;13.27;;;1.40;;
52180;SDS011;38158;53.338;6.514;2022-10-19T02:54:32;13.57;;;1.70;;
52180;SDS011;38158;53.338;6.514;2022-10-19T02:56:58;10.35;;;1.10;;
52180;SDS011;38158;53.338;6.514;2022-10-19T02:59:24;16.45;;;1.35;;
52180;SDS011;38158;53.338;6.514;2022-10-19T03:01:50;10.85;;;1.00;;
52180;SDS011;38158;53.338;6.514;2022-10-19T03:04:16;9.75;;;1.05;;
52180;SDS011;38158;53.338;6.514;2022-10-19T03:06:42;10.75;;;1.50;;
52180;SDS011;38158;53.338;6.514;2022-10-19T03:09:08;14.18;;;1.65;;
52180;SDS011;38158;53.338;6.514;2022-10-19T03:11:34;9.20;;;1.38;;
52180;SDS011;38158;53.338;6.514;2022-10-19T03:13:59;13.43;;;1.50;;
52180;SDS011;38158;53.338;6.514;2022-10-19T03:16:25;14.30;;;1.40;;
52180;SDS011;38158;53.338;6.514;2022-10-19T03:18:51;11.20;;;1.33;;
52180;SDS011;38158;53.338;6.514;2022-10-19T03:21:17;13.85;;;1.10;;
52180;SDS011;38158;53.338;6.514;2022-10-19T03:23:43;9.10;;;1.20;;
52180;SDS011;38158;53.338;6.514;2022-10-19T03:26:11;9.60;;;1.17;;
52180;SDS011;38158;53.338;6.514;2022-10-19T03:28:38;11.18;;;1.10;;
52180;SDS011;38158;53.338;6.514;2022-10-19T03:31:04;7.15;;;0.90;;
52180;SDS011;38158;53.338;6.514;2022-10-19T03:33:30;8.30;;;1.13;;
52180;SDS011;38158;53.338;6.514;2022-10-19T03:38:43;16.17;;;7.40;;
52180;SDS011;38158;53.338;6.514;2022-10-19T03:41:09;15.02;;;3.90;;
52180;SDS011;38158;53.338;6.514;2022-10-19T03:43:36;15.83;;;3.30;;
52180;SDS011;38158;53.338;6.514;2022-10-19T03:46:01;8.40;;;2.00;;
52180;SDS011;38158;53.338;6.514;2022-10-19T03:48:27;13.82;;;2.10;;
52180;SDS011;38158;53.338;6.514;2022-10-19T03:50:59;11.88;;;1.83;;
52180;SDS011;38158;53.338;6.514;2022-10-19T03:53:26;8.63;;;1.63;;
52180;SDS011;38158;53.338;6.514;2022-10-19T03:55:52;16.67;;;1.88;;
52180;SDS011;38158;53.338;6.514;2022-10-19T03:58:38;9.80;;;1.35;;
52180;SDS011;38158;53.338;6.514;2022-10-19T04:01:38;10.13;;;1.67;;
52180;SDS011;38158;53.338;6.514;2022-10-19T04:04:01;10.55;;;2.33;;
52180;SDS011;38158;53.338;6.514;2022-10-19T04:06:34;9.77;;;1.60;;
52180;SDS011;38158;53.338;6.514;2022-10-19T04:09:02;15.00;;;1.40;;
52180;SDS011;38158;53.338;6.514;2022-10-19T04:11:30;12.77;;;1.50;;
52180;SDS011;38158;53.338;6.514;2022-10-19T04:13:57;8.77;;;0.90;;
52180;SDS011;38158;53.338;6.514;2022-10-19T04:16:24;14.73;;;1.57;;
52180;SDS011;38158;53.338;6.514;2022-10-19T04:18:51;11.95;;;1.17;;
52180;SDS011;38158;53.338;6.514;2022-10-19T04:21:24;12.65;;;1.10;;
52180;SDS011;38158;53.338;6.514;2022-10-19T04:24:05;12.88;;;1.45;;
52180;SDS011;38158;53.338;6.514;2022-10-19T04:26:54;10.35;;;1.30;;
52180;SDS011;38158;53.338;6.514;2022-10-19T04:29:21;12.05;;;1.27;;
52180;SDS011;38158;53.338;6.514;2022-10-19T04:31:51;11.85;;;2.20;;
52180;SDS011;38158;53.338;6.514;2022-10-19T04:34:17;9.93;;;1.10;;
52180;SDS011;38158;53.338;6.514;2022-10-19T04:36:43;9.50;;;1.33;;
52180;SDS011;38158;53.338;6.514;2022-10-19T04:39:09;12.82;;;1.98;;
52180;SDS011;38158;53.338;6.514;2022-10-19T04:41:36;16.00;;;1.33;;
52180;SDS011;38158;53.338;6.514;2022-10-19T04:44:03;10.93;;;1.10;;
52180;SDS011;38158;53.338;6.514;2022-10-19T04:46:33;15.15;;;1.50;;
52180;SDS011;38158;53.338;6.514;2022-10-19T04:48:59;21.88;;;1.83;;
52180;SDS011;38158;53.338;6.514;2022-10-19T04:51:25;10.90;;;1.25;;
52180;SDS011;38158;53.338;6.514;2022-10-19T04:53:51;14.27;;;1.40;;
52180;SDS011;38158;53.338;6.514;2022-10-19T04:56:19;11.13;;;1.30;;
52180;SDS011;38158;53.338;6.514;2022-10-19T04:58:46;10.80;;;1.35;;
52180;SDS011;38158;53.338;6.514;2022-10-19T05:01:13;14.48;;;1.33;;
52180;SDS011;38158;53.338;6.514;2022-10-19T05:03:40;10.65;;;1.42;;
52180;SDS011;38158;53.338;6.514;2022-10-19T05:06:07;9.63;;;1.67;;
52180;SDS011;38158;53.338;6.514;2022-10-19T05:08:33;7.30;;;1.15;;
52180;SDS011;38158;53.338;6.514;2022-10-19T05:11:00;8.85;;;1.15;;
52180;SDS011;38158;53.338;6.514;2022-10-19T05:13:36;13.48;;;1.27;;
52180;SDS011;38158;53.338;6.514;2022-10-19T05:16:03;10.18;;;1.85;;
52180;SDS011;38158;53.338;6.514;2022-10-19T05:18:30;7.47;;;1.08;;
52180;SDS011;38158;53.338;6.514;2022-10-19T05:21:03;11.68;;;1.50;;
52180;SDS011;38158;53.338;6.514;2022-10-19T05:23:30;15.23;;;2.05;;
52180;SDS011;38158;53.338;6.514;2022-10-19T05:28:28;12.10;;;1.17;;
52180;SDS011;38158;53.338;6.514;2022-10-19T05:30:54;11.52;;;1.25;;
52180;SDS011;38158;53.338;6.514;2022-10-19T05:33:20;10.80;;;1.83;;
52180;SDS011;38158;53.338;6.514;2022-10-19T05:35:46;13.80;;;1.55;;
52180;SDS011;38158;53.338;6.514;2022-10-19T05:38:12;13.40;;;1.50;;
52180;SDS011;38158;53.338;6.514;2022-10-19T05:40:43;14.32;;;2.35;;
52180;SDS011;38158;53.338;6.514;2022-10-19T05:43:09;14.88;;;1.60;;
52180;SDS011;38158;53.338;6.514;2022-10-19T05:45:35;15.95;;;1.48;;
52180;SDS011;38158;53.338;6.514;2022-10-19T05:48:00;12.57;;;1.45;;
52180;SDS011;38158;53.338;6.514;2022-10-19T05:50:26;17.67;;;1.15;;
52180;SDS011;38158;53.338;6.514;2022-10-19T05:52:52;10.15;;;1.38;;
52180;SDS011;38158;53.338;6.514;2022-10-19T05:55:18;14.43;;;3.78;;
52180;SDS011;38158;53.338;6.514;2022-10-19T05:57:44;12.35;;;2.33;;
52180;SDS011;38158;53.338;6.514;2022-10-19T06:00:10;10.85;;;1.95;;
52180;SDS011;38158;53.338;6.514;2022-10-19T06:02:36;13.43;;;1.75;;
52180;SDS011;38158;53.338;6.514;2022-10-19T06:05:04;10.43;;;1.40;;
52180;SDS011;38158;53.338;6.514;2022-10-19T06:07:30;10.63;;;1.30;;
52180;SDS011;38158;53.338;6.514;2022-10-19T06:09:56;9.90;;;1.42;;
52180;SDS011;38158;53.338;6.514;2022-10-19T06:12:22;9.35;;;1.63;;
52180;SDS011;38158;53.338;6.514;2022-10-19T06:14:50;11.45;;;1.17;;
52180;SDS011;38158;53.338;6.514;2022-10-19T06:17:16;14.45;;;1.23;;
52180;SDS011;38158;53.338;6.514;2022-10-19T06:19:41;10.60;;;1.55;;
52180;SDS011;38158;53.338;6.514;2022-10-19T06:22:07;7.80;;;0.90;;
52180;SDS011;38158;53.338;6.514;2022-10-19T06:24:33;11.32;;;3.05;;
52180;SDS011;38158;53.338;6.514;2022-10-19T06:26:59;9.88;;;1.17;;
52180;SDS011;38158;53.338;6.514;2022-10-19T06:29:25;18.50;;;2.13;;
52180;SDS011;38158;53.338;6.514;2022-10-19T06:31:50;10.50;;;1.33;;
52180;SDS011;38158;53.338;6.514;2022-10-19T06:34:18;10.25;;;1.10;;
52180;SDS011;38158;53.338;6.514;2022-10-19T06:36:43;10.48;;;1.58;;
52180;SDS011;38158;53.338;6.514;2022-10-19T06:39:09;13.20;;;1.40;;
52180;SDS011;38158;53.338;6.514;2022-10-19T06:41:35;8.00;;;1.45;;
52180;SDS011;38158;53.338;6.514;2022-10-19T06:44:00;8.70;;;1.05;;
52180;SDS011;38158;53.338;6.514;2022-10-19T06:46:26;10.07;;;1.63;;
52180;SDS011;38158;53.338;6.514;2022-10-19T06:48:53;8.85;;;1.67;;
52180;SDS011;38158;53.338;6.514;2022-10-19T06:51:20;7.93;;;0.70;;
52180;SDS011;38158;53.338;6.514;2022-10-19T06:53:48;15.00;;;1.90;;
52180;SDS011;38158;53.338;6.514;2022-10-19T06:56:13;11.02;;;1.75;;
52180;SDS011;38158;53.338;6.514;2022-10-19T06:58:39;8.63;;;2.40;;
52180;SDS011;38158;53.338;6.514;2022-10-19T07:01:06;8.98;;;1.17;;
52180;SDS011;38158;53.338;6.514;2022-10-19T07:03:33;10.15;;;1.10;;
52180;SDS011;38158;53.338;6.514;2022-10-19T07:06:00;10.27;;;1.23;;
52180;SDS011;38158;53.338;6.514;2022-10-19T07:08:28;14.10;;;1.15;;
52180;SDS011;38158;53.338;6.514;2022-10-19T07:10:55;9.98;;;1.50;;
52180;SDS011;38158;53.338;6.514;2022-10-19T07:13:23;11.80;;;1.20;;
52180;SDS011;38158;53.338;6.514;2022-10-19T07:15:55;10.55;;;0.90;;
52180;SDS011;38158;53.338;6.514;2022-10-19T07:18:21;7.28;;;0.98;;
52180;SDS011;38158;53.338;6.514;2022-10-19T07:20:57;11.68;;;1.45;;
52180;SDS011;38158;53.338;6.514;2022-10-19T07:23:24;8.80;;;1.20;;
52180;SDS011;38158;53.338;6.514;2022-10-19T07:28:18;9.27;;;1.27;;
52180;SDS011;38158;53.338;6.514;2022-10-19T07:33:10;8.35;;;1.17;;
52180;SDS011;38158;53.338;6.514;2022-10-19T07:35:36;15.35;;;1.50;;
52180;SDS011;38158;53.338;6.514;2022-10-19T07:38:02;9.45;;;1.00;;
52180;SDS011;38158;53.338;6.514;2022-10-19T07:40:27;11.48;;;1.05;;
52180;SDS011;38158;53.338;6.514;2022-10-19T07:42:53;6.32;;;1.00;;
52180;SDS011;38158;53.338;6.514;2022-10-19T07:45:18;10.43;;;1.15;;
52180;SDS011;38158;53.338;6.514;2022-10-19T07:47:44;11.40;;;1.42;;
52180;SDS011;38158;53.338;6.514;2022-10-19T07:50:10;8.75;;;1.17;;
52180;SDS011;38158;53.338;6.514;2022-10-19T07:52:35;12.52;;;1.00;;
52180;SDS011;38158;53.338;6.514;2022-10-19T07:55:01;11.88;;;1.08;;
52180;SDS011;38158;53.338;6.514;2022-10-19T07:57:27;8.63;;;1.20;;
52180;SDS011;38158;53.338;6.514;2022-10-19T07:59:53;8.48;;;1.02;;
52180;SDS011;38158;53.338;6.514;2022-10-19T08:02:18;7.32;;;1.15;;
52180;SDS011;38158;53.338;6.514;2022-10-19T08:04:44;15.25;;;1.70;;
52180;SDS011;38158;53.338;6.514;2022-10-19T08:07:10;10.73;;;1.35;;
52180;SDS011;38158;53.338;6.514;2022-10-19T08:09:36;11.93;;;1.67;;
52180;SDS011;38158;53.338;6.514;2022-10-19T08:12:02;8.80;;;1.17;;
52180;SDS011;38158;53.338;6.514;2022-10-19T08:14:28;11.05;;;2.15;;
52180;SDS011;38158;53.338;6.514;2022-10-19T08:16:54;8.68;;;1.48;;
52180;SDS011;38158;53.338;6.514;2022-10-19T08:19:20;17.65;;;2.17;;
52180;SDS011;38158;53.338;6.514;2022-10-19T08:21:46;10.27;;;1.52;;
52180;SDS011;38158;53.338;6.514;2022-10-19T08:24:13;12.80;;;1.58;;
52180;SDS011;38158;53.338;6.514;2022-10-19T08:29:06;9.48;;;1.05;;
52180;SDS011;38158;53.338;6.514;2022-10-19T08:31:35;8.55;;;1.08;;
52180;SDS011;38158;53.338;6.514;2022-10-19T08:34:01;13.77;;;1.35;;
52180;SDS011;38158;53.338;6.514;2022-10-19T08:36:27;10.07;;;1.05;;
52180;SDS011;38158;53.338;6.514;2022-10-19T08:38:55;12.25;;;1.17;;
52180;SDS011;38158;53.338;6.514;2022-10-19T08:51:48;9.85;;;0.95;;
52180;SDS011;38158;53.338;6.514;2022-10-19T08:54:19;11.70;;;1.15;;
52180;SDS011;38158;53.338;6.514;2022-10-19T08:57:10;5.57;;;0.98;;
52180;SDS011;38158;53.338;6.514;2022-10-19T09:00:30;11.77;;;1.13;;
52180;SDS011;38158;53.338;6.514;2022-10-19T09:05:34;7.47;;;1.20;;
52180;SDS011;38158;53.338;6.514;2022-10-19T09:08:11;13.32;;;1.02;;
52180;SDS011;38158;53.338;6.514;2022-10-19T09:10:41;10.40;;;1.33;;
52180;SDS011;38158;53.338;6.514;2022-10-19T09:16:03;10.18;;;1.05;;
52180;SDS011;38158;53.338;6.514;2022-10-19T09:18:32;11.25;;;1.30;;
52180;SDS011;38158;53.338;6.514;2022-10-19T09:21:08;17.27;;;1.80;;
52180;SDS011;38158;53.338;6.514;2022-10-19T09:26:21;9.45;;;1.00;;
52180;SDS011;38158;53.338;6.514;2022-10-19T09:31:39;8.38;;;1.02;;
52180;SDS011;38158;53.338;6.514;2022-10-19T09:36:42;7.70;;;1.00;;
52180;SDS011;38158;53.338;6.514;2022-10-19T09:39:13;12.13;;;1.58;;
52180;SDS011;38158;53.338;6.514;2022-10-19T09:44:21;10.13;;;1.33;;
52180;SDS011;38158;53.338;6.514;2022-10-19T09:52:07;13.70;;;1.88;;
52180;SDS011;38158;53.338;6.514;2022-10-19T09:57:57;7.20;;;1.20;;
52180;SDS011;38158;53.338;6.514;2022-10-19T10:00:39;11.20;;;1.20;;
52180;SDS011;38158;53.338;6.514;2022-10-19T10:03:07;10.15;;;1.45;;
52180;SDS011;38158;53.338;6.514;2022-10-19T10:05:45;12.52;;;1.52;;
52180;SDS011;38158;53.338;6.514;2022-10-19T10:08:23;11.52;;;1.42;;
52180;SDS011;38158;53.338;6.514;2022-10-19T10:11:03;11.20;;;1.02;;
52180;SDS011;38158;53.338;6.514;2022-10-19T10:13:33;10.48;;;1.27;;
52180;SDS011;38158;53.338;6.514;2022-10-19T10:16:05;8.27;;;1.33;;
52180;SDS011;38158;53.338;6.514;2022-10-19T10:18:43;10.63;;;1.42;;
52180;SDS011;38158;53.338;6.514;2022-10-19T10:21:50;13.50;;;1.52;;
52180;SDS011;38158;53.338;6.514;2022-10-19T10:24:27;6.75;;;1.00;;
52180;SDS011;38158;53.338;6.514;2022-10-19T10:31:48;14.90;;;1.90;;
52180;SDS011;38158;53.338;6.514;2022-10-19T10:37:03;10.07;;;0.90;;
52180;SDS011;38158;53.338;6.514;2022-10-19T10:39:32;10.35;;;1.40;;
52180;SDS011;38158;53.338;6.514;2022-10-19T10:42:07;9.73;;;1.33;;
52180;SDS011;38158;53.338;6.514;2022-10-19T10:44:35;8.43;;;1.23;;
52180;SDS011;38158;53.338;6.514;2022-10-19T10:47:03;8.87;;;1.10;;
52180;SDS011;38158;53.338;6.514;2022-10-19T10:49:37;11.05;;;1.20;;
52180;SDS011;38158;53.338;6.514;2022-10-19T10:52:08;7.50;;;1.17;;
52180;SDS011;38158;53.338;6.514;2022-10-19T10:54:36;9.18;;;1.20;;
52180;SDS011;38158;53.338;6.514;2022-10-19T10:57:04;12.80;;;2.25;;
52180;SDS011;38158;53.338;6.514;2022-10-19T10:59:46;9.50;;;1.42;;
52180;SDS011;38158;53.338;6.514;2022-10-19T11:05:02;7.75;;;1.00;;
52180;SDS011;38158;53.338;6.514;2022-10-19T11:13:19;7.95;;;1.50;;
52180;SDS011;38158;53.338;6.514;2022-10-19T11:16:01;8.90;;;1.33;;
52180;SDS011;38158;53.338;6.514;2022-10-19T11:18:40;9.37;;;1.27;;
52180;SDS011;38158;53.338;6.514;2022-10-19T11:21:23;7.78;;;1.10;;
52180;SDS011;38158;53.338;6.514;2022-10-19T11:26:52;10.43;;;0.98;;
52180;SDS011;38158;53.338;6.514;2022-10-19T11:32:31;8.93;;;1.17;;
52180;SDS011;38158;53.338;6.514;2022-10-19T11:35:10;8.73;;;1.30;;
52180;SDS011;38158;53.338;6.514;2022-10-19T11:43:35;7.18;;;1.00;;
52180;SDS011;38158;53.338;6.514;2022-10-19T12:05:00;12.18;;;1.48;;
52180;SDS011;38158;53.338;6.514;2022-10-19T12:15:40;12.93;;;1.23;;
52180;SDS011;38158;53.338;6.514;2022-10-19T12:18:33;8.10;;;0.77;;
52180;SDS011;38158;53.338;6.514;2022-10-19T12:21:08;9.52;;;1.30;;
52180;SDS011;38158;53.338;6.514;2022-10-19T12:23:54;8.45;;;1.08;;
52180;SDS011;38158;53.338;6.514;2022-10-19T12:26:21;9.00;;;1.10;;
52180;SDS011;38158;53.338;6.514;2022-10-19T12:28:49;10.13;;;1.90;;
52180;SDS011;38158;53.338;6.514;2022-10-19T12:31:20;11.88;;;1.40;;
52180;SDS011;38158;53.338;6.514;2022-10-19T12:33:49;7.15;;;0.90;;
52180;SDS011;38158;53.338;6.514;2022-10-19T12:39:23;7.20;;;0.98;;
52180;SDS011;38158;53.338;6.514;2022-10-19T12:45:07;6.03;;;0.93;;
52180;SDS011;38158;53.338;6.514;2022-10-19T12:55:59;8.40;;;1.35;;
52180;SDS011;38158;53.338;6.514;2022-10-19T12:58:30;7.95;;;0.90;;
52180;SDS011;38158;53.338;6.514;2022-10-19T13:01:03;7.10;;;1.20;;
52180;SDS011;38158;53.338;6.514;2022-10-19T13:03:34;10.38;;;1.00;;
52180;SDS011;38158;53.338;6.514;2022-10-19T13:06:08;10.23;;;1.10;;
52180;SDS011;38158;53.338;6.514;2022-10-19T13:08:41;8.13;;;1.00;;
52180;SDS011;38158;53.338;6.514;2022-10-19T13:11:16;8.02;;;1.08;;
52180;SDS011;38158;53.338;6.514;2022-10-19T13:21:46;7.63;;;1.20;;
52180;SDS011;38158;53.338;6.514;2022-10-19T13:26:44;6.03;;;1.13;;
52180;SDS011;38158;53.338;6.514;2022-10-19T13:29:23;9.63;;;1.30;;
52180;SDS011;38158;53.338;6.514;2022-10-19T13:32:54;6.07;;;1.08;;
52180;SDS011;38158;53.338;6.514;2022-10-19T13:35:18;6.07;;;0.90;;
52180;SDS011;38158;53.338;6.514;2022-10-19T13:40:35;5.63;;;1.00;;
52180;SDS011;38158;53.338;6.514;2022-10-19T13:43:02;5.72;;;1.08;;
52180;SDS011;38158;53.338;6.514;2022-10-19T13:45:29;6.97;;;1.17;;
52180;SDS011;38158;53.338;6.514;2022-10-19T13:47:56;7.60;;;1.17;;
52180;SDS011;38158;53.338;6.514;2022-10-19T13:50:41;10.20;;;1.00;;
52180;SDS011;38158;53.338;6.514;2022-10-19T14:01:31;10.48;;;1.95;;
52180;SDS011;38158;53.338;6.514;2022-10-19T14:04:11;9.90;;;1.23;;
52180;SDS011;38158;53.338;6.514;2022-10-19T14:06:44;6.00;;;0.73;;
52180;SDS011;38158;53.338;6.514;2022-10-19T14:11:45;9.43;;;1.52;;
52180;SDS011;38158;53.338;6.514;2022-10-19T14:16:57;9.82;;;1.13;;
52180;SDS011;38158;53.338;6.514;2022-10-19T14:21:57;6.57;;;1.02;;
52180;SDS011;38158;53.338;6.514;2022-10-19T14:24:41;6.55;;;1.10;;
52180;SDS011;38158;53.338;6.514;2022-10-19T14:27:06;6.55;;;0.85;;
52180;SDS011;38158;53.338;6.514;2022-10-19T14:29:34;5.90;;;1.13;;
52180;SDS011;38158;53.338;6.514;2022-10-19T14:32:11;8.32;;;1.02;;
52180;SDS011;38158;53.338;6.514;2022-10-19T14:34:40;6.05;;;1.00;;
52180;SDS011;38158;53.338;6.514;2022-10-19T14:37:23;5.30;;;0.73;;
52180;SDS011;38158;53.338;6.514;2022-10-19T14:42:46;5.47;;;1.13;;
52180;SDS011;38158;53.338;6.514;2022-10-19T14:45:14;5.78;;;1.27;;
52180;SDS011;38158;53.338;6.514;2022-10-19T14:48:04;8.23;;;1.38;;
52180;SDS011;38158;53.338;6.514;2022-10-19T14:50:33;7.88;;;1.50;;
52180;SDS011;38158;53.338;6.514;2022-10-19T14:53:20;8.48;;;1.23;;
52180;SDS011;38158;53.338;6.514;2022-10-19T14:55:55;6.50;;;1.65;;
52180;SDS011;38158;53.338;6.514;2022-10-19T14:58:25;8.32;;;1.38;;
52180;SDS011;38158;53.338;6.514;2022-10-19T15:00:52;8.30;;;1.75;;
52180;SDS011;38158;53.338;6.514;2022-10-19T15:03:23;5.85;;;1.60;;
52180;SDS011;38158;53.338;6.514;2022-10-19T15:05:55;6.93;;;1.60;;
52180;SDS011;38158;53.338;6.514;2022-10-19T15:08:36;7.95;;;1.20;;
52180;SDS011;38158;53.338;6.514;2022-10-19T15:11:06;11.63;;;1.23;;
52180;SDS011;38158;53.338;6.514;2022-10-19T15:13:45;6.75;;;1.60;;
52180;SDS011;38158;53.338;6.514;2022-10-19T15:19:01;8.00;;;1.60;;
52180;SDS011;38158;53.338;6.514;2022-10-19T15:21:29;9.70;;;1.75;;
52180;SDS011;38158;53.338;6.514;2022-10-19T15:24:04;12.20;;;2.10;;
52180;SDS011;38158;53.338;6.514;2022-10-19T15:26:32;10.20;;;3.30;;
52180;SDS011;38158;53.338;6.514;2022-10-19T15:29:08;8.43;;;1.80;;
52180;SDS011;38158;53.338;6.514;2022-10-19T15:31:42;10.25;;;2.40;;
52180;SDS011;38158;53.338;6.514;2022-10-19T15:34:15;9.98;;;1.73;;
52180;SDS011;38158;53.338;6.514;2022-10-19T15:36:53;5.80;;;1.45;;
52180;SDS011;38158;53.338;6.514;2022-10-19T15:39:31;5.60;;;1.15;;
52180;SDS011;38158;53.338;6.514;2022-10-19T15:44:57;12.57;;;1.40;;
52180;SDS011;38158;53.338;6.514;2022-10-19T15:47:24;8.68;;;2.00;;
52180;SDS011;38158;53.338;6.514;2022-10-19T15:52:19;12.95;;;1.77;;
52180;SDS011;38158;53.338;6.514;2022-10-19T15:54:50;7.53;;;1.45;;
52180;SDS011;38158;53.338;6.514;2022-10-19T15:59:54;10.25;;;2.50;;
52180;SDS011;38158;53.338;6.514;2022-10-19T16:02:21;9.23;;;2.15;;
52180;SDS011;38158;53.338;6.514;2022-10-19T16:04:49;9.57;;;1.80;;
52180;SDS011;38158;53.338;6.514;2022-10-19T16:07:19;10.68;;;2.03;;
52180;SDS011;38158;53.338;6.514;2022-10-19T16:09:51;7.25;;;2.08;;
52180;SDS011;38158;53.338;6.514;2022-10-19T16:12:17;8.15;;;2.15;;
52180;SDS011;38158;53.338;6.514;2022-10-19T16:14:42;8.63;;;2.38;;
52180;SDS011;38158;53.338;6.514;2022-10-19T16:17:09;9.43;;;2.55;;
52180;SDS011;38158;53.338;6.514;2022-10-19T16:19:39;9.30;;;2.35;;
52180;SDS011;38158;53.338;6.514;2022-10-19T16:22:05;14.43;;;3.17;;
52180;SDS011;38158;53.338;6.514;2022-10-19T16:24:31;9.60;;;2.67;;
52180;SDS011;38158;53.338;6.514;2022-10-19T16:26:56;17.00;;;3.40;;
52180;SDS011;38158;53.338;6.514;2022-10-19T16:29:22;11.27;;;2.28;;
52180;SDS011;38158;53.338;6.514;2022-10-19T16:31:48;9.98;;;3.28;;
52180;SDS011;38158;53.338;6.514;2022-10-19T16:34:13;10.35;;;3.58;;
52180;SDS011;38158;53.338;6.514;2022-10-19T16:36:39;13.80;;;4.20;;
52180;SDS011;38158;53.338;6.514;2022-10-19T16:39:05;11.98;;;4.53;;
52180;SDS011;38158;53.338;6.514;2022-10-19T16:41:30;13.82;;;4.35;;
52180;SDS011;38158;53.338;6.514;2022-10-19T16:43:56;11.95;;;4.65;;
52180;SDS011;38158;53.338;6.514;2022-10-19T16:46:22;10.65;;;4.00;;
52180;SDS011;38158;53.338;6.514;2022-10-19T16:48:49;11.23;;;4.18;;
52180;SDS011;38158;53.338;6.514;2022-10-19T16:53:40;10.70;;;4.55;;
52180;SDS011;38158;53.338;6.514;2022-10-19T16:56:10;16.88;;;5.00;;
52180;SDS011;38158;53.338;6.514;2022-10-19T16:58:37;12.32;;;5.35;;
52180;SDS011;38158;53.338;6.514;2022-10-19T17:01:10;10.63;;;4.65;;
52180;SDS011;38158;53.338;6.514;2022-10-19T17:03:39;13.50;;;4.90;;
52180;SDS011;38158;53.338;6.514;2022-10-19T17:06:06;10.80;;;4.80;;
52180;SDS011;38158;53.338;6.514;2022-10-19T17:08:33;12.20;;;5.40;;
52180;SDS011;38158;53.338;6.514;2022-10-19T17:11:15;12.40;;;5.75;;
52180;SDS011;38158;53.338;6.514;2022-10-19T17:13:43;11.85;;;5.28;;
52180;SDS011;38158;53.338;6.514;2022-10-19T17:16:11;13.98;;;5.88;;
52180;SDS011;38158;53.338;6.514;2022-10-19T17:18:37;11.70;;;4.80;;
52180;SDS011;38158;53.338;6.514;2022-10-19T17:21:07;12.75;;;5.22;;
52180;SDS011;38158;53.338;6.514;2022-10-19T17:23:37;11.43;;;4.50;;
52180;SDS011;38158;53.338;6.514;2022-10-19T17:26:04;14.05;;;5.28;;
52180;SDS011;38158;53.338;6.514;2022-10-19T17:31:01;12.38;;;5.40;;
52180;SDS011;38158;53.338;6.514;2022-10-19T17:33:31;13.95;;;5.90;;
52180;SDS011;38158;53.338;6.514;2022-10-19T17:36:31;14.38;;;6.25;;
52180;SDS011;38158;53.338;6.514;2022-10-19T17:38:52;14.25;;;6.72;;
52180;SDS011;38158;53.338;6.514;2022-10-19T17:41:18;12.10;;;5.65;;
52180;SDS011;38158;53.338;6.514;2022-10-19T17:43:45;10.40;;;6.10;;
52180;SDS011;38158;53.338;6.514;2022-10-19T17:46:13;9.90;;;5.47;;
52180;SDS011;38158;53.338;6.514;2022-10-19T17:48:40;14.00;;;5.75;;
52180;SDS011;38158;53.338;6.514;2022-10-19T17:51:17;10.98;;;5.68;;
52180;SDS011;38158;53.338;6.514;2022-10-19T17:54:00;12.30;;;5.80;;
52180;SDS011;38158;53.338;6.514;2022-10-19T17:56:27;12.05;;;6.43;;
52180;SDS011;38158;53.338;6.514;2022-10-19T17:58:54;10.23;;;5.47;;
52180;SDS011;38158;53.338;6.514;2022-10-19T18:01:20;11.25;;;5.32;;
52180;SDS011;38158;53.338;6.514;2022-10-19T18:03:47;14.60;;;5.63;;
52180;SDS011;38158;53.338;6.514;2022-10-19T18:06:14;13.48;;;5.18;;
52180;SDS011;38158;53.338;6.514;2022-10-19T18:08:46;15.38;;;5.82;;
52180;SDS011;38158;53.338;6.514;2022-10-19T18:11:23;9.45;;;5.72;;
52180;SDS011;38158;53.338;6.514;2022-10-19T18:13:51;13.80;;;4.82;;
52180;SDS011;38158;53.338;6.514;2022-10-19T18:16:20;12.25;;;4.43;;
52180;SDS011;38158;53.338;6.514;2022-10-19T18:18:53;9.13;;;4.32;;